createdAt,value
2018-12-22T00:00:06.980Z,1003.00
2018-12-22T00:01:06.977Z,1002.94
2018-12-22T00:02:06.971Z,1002.97
2018-12-22T00:03:06.972Z,1002.96
2018-12-22T00:04:06.973Z,1003.01
2018-12-22T00:05:06.979Z,1003.01
2018-12-22T00:06:06.958Z,1002.98
2018-12-22T00:07:06.953Z,1002.98
2018-12-22T00:08:06.945Z,1003.01
2018-12-22T00:09:06.947Z,1003.01
2018-12-22T00:10:06.950Z,1003.03
2018-12-22T00:11:06.932Z,1003.02
2018-12-22T00:12:06.972Z,1003.07
2018-12-22T00:13:07.022Z,1003.03
2018-12-22T00:14:06.925Z,1003.04
2018-12-22T00:15:06.913Z,1003.08
2018-12-22T00:16:06.916Z,1003.06
2018-12-22T00:17:06.925Z,1003.09
2018-12-22T00:18:06.911Z,1003.07
2018-12-22T00:19:06.905Z,1003.06
2018-12-22T00:20:06.919Z,1003.08
2018-12-22T00:21:06.895Z,1003.06
2018-12-22T00:22:06.903Z,1003.05
2018-12-22T00:23:06.894Z,1003.04
2018-12-22T00:24:06.887Z,1003.01
2018-12-22T00:25:06.879Z,1003.01
2018-12-22T00:26:06.875Z,1003.01
2018-12-22T00:27:06.869Z,1002.99
2018-12-22T00:28:06.905Z,1003.07
2018-12-22T00:29:06.875Z,1003.01
2018-12-22T00:30:06.871Z,1003.02
2018-12-22T00:31:06.868Z,1003.02
2018-12-22T00:32:06.851Z,1003.01
2018-12-22T00:33:06.855Z,1002.97
2018-12-22T00:34:06.847Z,1003.07
2018-12-22T00:35:06.864Z,1002.99
2018-12-22T00:36:06.835Z,1002.98
2018-12-22T00:37:06.845Z,1002.96
2018-12-22T00:38:06.842Z,1002.95
2018-12-22T00:39:06.813Z,1002.97
2018-12-22T00:40:06.823Z,1003.00
2018-12-22T00:41:06.829Z,1003.05
2018-12-22T00:42:06.825Z,1003.02
2018-12-22T00:43:06.812Z,1002.97
2018-12-22T00:44:06.802Z,1002.96
2018-12-22T00:45:06.809Z,1003.11
2018-12-22T00:46:06.809Z,1002.94
2018-12-22T00:47:06.785Z,1002.97
2018-12-22T00:48:06.795Z,1002.94
2018-12-22T00:49:06.777Z,1002.93
2018-12-22T00:50:06.785Z,1002.95
2018-12-22T00:51:06.770Z,1002.93
2018-12-22T00:52:06.769Z,1002.96
2018-12-22T00:53:06.792Z,1002.94
2018-12-22T00:54:06.761Z,1002.98
2018-12-22T00:55:06.758Z,1002.93
2018-12-22T00:56:06.753Z,1002.91
2018-12-22T00:57:06.958Z,1002.95
2018-12-22T00:58:06.755Z,1002.98
2018-12-22T00:59:06.958Z,1002.93
2018-12-22T01:00:06.729Z,1002.95
2018-12-22T01:01:06.741Z,1003.01
2018-12-22T01:02:06.807Z,1002.99
2018-12-22T01:03:06.728Z,1002.91
2018-12-22T01:04:06.712Z,1002.99
2018-12-22T01:05:06.927Z,1002.95
2018-12-22T01:06:06.702Z,1003.02
2018-12-22T01:07:06.728Z,1003.04
2018-12-22T01:08:06.708Z,1003.06
2018-12-22T01:09:06.695Z,1003.07
2018-12-22T01:10:06.691Z,1003.02
2018-12-22T01:11:06.686Z,1003.01
2018-12-22T01:12:06.897Z,1003.03
2018-12-22T01:13:06.673Z,1002.98
2018-12-22T01:14:06.678Z,1003.02
2018-12-22T01:15:06.662Z,1003.02
2018-12-22T01:16:06.667Z,1002.97
2018-12-22T01:17:06.863Z,1002.98
2018-12-22T01:18:06.660Z,1002.99
2018-12-22T01:19:06.863Z,1003.00
2018-12-22T01:20:06.655Z,1003.01
2018-12-22T01:21:06.638Z,1003.05
2018-12-22T01:22:06.638Z,1003.01
2018-12-22T01:23:06.832Z,1003.07
2018-12-22T01:24:06.631Z,1003.06
2018-12-22T01:25:06.632Z,1003.05
2018-12-22T01:26:06.629Z,1003.07
2018-12-22T01:27:06.617Z,1003.05
2018-12-22T01:28:06.608Z,1003.09
2018-12-22T01:29:06.618Z,1003.08
2018-12-22T01:30:06.607Z,1003.03
2018-12-22T01:31:06.800Z,1003.06
2018-12-22T01:32:06.617Z,1003.05
2018-12-22T01:33:06.586Z,1003.04
2018-12-22T01:34:06.587Z,1003.03
2018-12-22T01:35:06.585Z,1002.97
2018-12-22T01:36:06.593Z,1002.95
2018-12-22T01:37:06.575Z,1002.94
2018-12-22T01:38:06.776Z,1002.97
2018-12-22T01:39:06.793Z,1002.93
2018-12-22T01:40:06.573Z,1002.93
2018-12-22T01:41:06.774Z,1002.92
2018-12-22T01:42:06.555Z,1002.88
2018-12-22T01:43:06.766Z,1002.93
2018-12-22T01:44:06.538Z,1002.92
2018-12-22T01:45:06.541Z,1002.93
2018-12-22T01:46:06.534Z,1002.95
2018-12-22T01:47:06.617Z,1002.94
2018-12-22T01:48:06.524Z,1002.98
2018-12-22T01:49:06.519Z,1002.95
2018-12-22T01:50:06.530Z,1002.95
2018-12-22T01:51:06.521Z,1002.96
2018-12-22T01:52:06.712Z,1003.00
2018-12-22T01:53:06.538Z,1002.93
2018-12-22T01:54:06.502Z,1002.93
2018-12-22T01:55:06.493Z,1002.91
2018-12-22T01:56:06.502Z,1002.94
2018-12-22T01:57:06.487Z,1002.95
2018-12-22T01:58:06.523Z,1002.95
2018-12-22T01:59:06.484Z,1002.93
2018-12-22T02:00:06.476Z,1002.88
2018-12-22T02:01:06.479Z,1002.88
2018-12-22T02:02:06.471Z,1002.84
2018-12-22T02:03:06.676Z,1002.82
2018-12-22T02:04:06.451Z,1002.82
2018-12-22T02:05:06.450Z,1002.82
2018-12-22T02:06:06.449Z,1002.84
2018-12-22T02:07:06.448Z,1002.87
2018-12-22T02:08:06.440Z,1002.80
2018-12-22T02:09:06.447Z,1002.82
2018-12-22T02:10:06.426Z,1002.86
2018-12-22T02:11:06.424Z,1002.78
2018-12-22T02:12:06.447Z,1002.79
2018-12-22T02:13:06.415Z,1002.75
2018-12-22T02:14:06.417Z,1002.76
2018-12-22T02:15:06.419Z,1002.75
2018-12-22T02:16:06.412Z,1002.73
2018-12-22T02:17:06.406Z,1002.74
2018-12-22T02:18:06.409Z,1002.64
2018-12-22T02:19:06.600Z,1002.60
2018-12-22T02:20:06.390Z,1002.58
2018-12-22T02:21:06.596Z,1002.57
2018-12-22T02:22:06.378Z,1002.54
2018-12-22T02:23:06.382Z,1002.55
2018-12-22T02:24:06.587Z,1002.50
2018-12-22T02:25:06.368Z,1002.45
2018-12-22T02:26:06.378Z,1002.50
2018-12-22T02:27:06.371Z,1002.50
2018-12-22T02:28:06.358Z,1002.47
2018-12-22T02:29:06.558Z,1002.46
2018-12-22T02:30:06.352Z,1002.50
2018-12-22T02:31:06.563Z,1002.53
2018-12-22T02:32:06.335Z,1002.46
2018-12-22T02:33:06.329Z,1002.44
2018-12-22T02:34:06.335Z,1002.53
2018-12-22T02:35:06.319Z,1002.42
2018-12-22T02:36:06.535Z,1002.48
2018-12-22T02:37:06.326Z,1002.38
2018-12-22T02:38:06.352Z,1002.42
2018-12-22T02:39:06.307Z,1002.35
2018-12-22T02:40:06.332Z,1002.37
2018-12-22T02:41:06.314Z,1002.39
2018-12-22T02:42:06.293Z,1002.33
2018-12-22T02:43:06.285Z,1002.35
2018-12-22T02:44:06.283Z,1002.38
2018-12-22T02:45:06.282Z,1002.36
2018-12-22T02:46:06.282Z,1002.39
2018-12-22T02:47:06.473Z,1002.33
2018-12-22T02:48:06.263Z,1002.29
2018-12-22T02:49:06.269Z,1002.41
2018-12-22T02:50:06.260Z,1002.34
2018-12-22T02:51:06.256Z,1002.31
2018-12-22T02:52:06.263Z,1002.30
2018-12-22T02:53:06.245Z,1002.34
2018-12-22T02:54:06.245Z,1002.34
2018-12-22T02:55:06.233Z,1002.34
2018-12-22T02:56:06.234Z,1002.31
2018-12-22T02:57:06.225Z,1002.34
2018-12-22T02:58:06.222Z,1002.26
2018-12-22T02:59:06.588Z,1002.26
2018-12-22T03:00:06.217Z,1002.25
2018-12-22T03:01:06.206Z,1002.26
2018-12-22T03:02:06.430Z,1002.24
2018-12-22T03:03:06.206Z,1002.24
2018-12-22T03:04:06.415Z,1002.24
2018-12-22T03:05:06.186Z,1002.19
2018-12-22T03:06:06.396Z,1002.22
2018-12-22T03:07:06.189Z,1002.20
2018-12-22T03:08:06.183Z,1002.12
2018-12-22T03:09:06.182Z,1002.09
2018-12-22T03:10:06.167Z,1002.12
2018-12-22T03:11:06.166Z,1002.11
2018-12-22T03:12:06.164Z,1002.07
2018-12-22T03:13:06.168Z,1002.02
2018-12-22T03:14:06.155Z,1001.99
2018-12-22T03:15:06.151Z,1002.03
2018-12-22T03:16:06.142Z,1002.01
2018-12-22T03:17:06.146Z,1001.98
2018-12-22T03:18:06.137Z,1001.91
2018-12-22T03:19:06.136Z,1001.86
2018-12-22T03:20:06.139Z,1001.86
2018-12-22T03:21:06.122Z,1001.88
2018-12-22T03:22:06.131Z,1001.80
2018-12-22T03:23:06.127Z,1001.81
2018-12-22T03:24:06.108Z,1001.81
2018-12-22T03:25:06.307Z,1001.78
2018-12-22T03:26:06.097Z,1001.69
2018-12-22T03:27:06.310Z,1001.73
2018-12-22T03:28:06.297Z,1001.73
2018-12-22T03:29:15.287Z,1001.70
2018-12-22T03:30:06.292Z,1001.69
2018-12-22T03:31:06.113Z,1001.69
2018-12-22T03:32:06.281Z,1001.71
2018-12-22T03:33:06.276Z,1001.63
2018-12-22T03:34:06.074Z,1001.55
2018-12-22T03:35:06.072Z,1001.62
2018-12-22T03:36:06.259Z,1001.61
2018-12-22T03:37:06.053Z,1001.57
2018-12-22T03:38:06.059Z,1001.58
2018-12-22T03:39:06.043Z,1001.56
2018-12-22T03:40:06.049Z,1001.55
2018-12-22T03:41:06.036Z,1001.57
2018-12-22T03:42:06.033Z,1001.59
2018-12-22T03:43:06.033Z,1001.55
2018-12-22T03:44:06.034Z,1001.56
2018-12-22T03:45:06.024Z,1001.53
2018-12-22T03:46:06.015Z,1001.48
2018-12-22T03:47:06.023Z,1001.57
2018-12-22T03:48:06.028Z,1001.52
2018-12-22T03:49:06.033Z,1001.47
2018-12-22T03:50:05.995Z,1001.52
2018-12-22T03:51:06.012Z,1001.63
2018-12-22T03:52:05.989Z,1001.60
2018-12-22T03:53:06.219Z,1001.69
2018-12-22T03:54:05.981Z,1001.69
2018-12-22T03:55:05.978Z,1001.71
2018-12-22T03:56:05.976Z,1001.75
2018-12-22T03:57:05.974Z,1001.63
2018-12-22T03:58:05.993Z,1001.68
2018-12-22T03:59:05.972Z,1001.60
2018-12-22T04:00:05.955Z,1001.72
2018-12-22T04:01:05.983Z,1001.71
2018-12-22T04:02:06.154Z,1001.51
2018-12-22T04:03:05.947Z,1001.45
2018-12-22T04:04:05.945Z,1001.55
2018-12-22T04:05:05.940Z,1001.49
2018-12-22T04:06:06.143Z,1001.53
2018-12-22T04:07:05.925Z,1001.53
2018-12-22T04:08:05.916Z,1001.48
2018-12-22T04:09:05.913Z,1001.60
2018-12-22T04:10:05.919Z,1001.55
2018-12-22T04:11:05.901Z,1001.57
2018-12-22T04:12:05.900Z,1001.58
2018-12-22T04:13:05.893Z,1001.55
2018-12-22T04:14:06.122Z,1001.55
2018-12-22T04:15:06.088Z,1001.52
2018-12-22T04:16:05.880Z,1001.56
2018-12-22T04:17:06.092Z,1001.54
2018-12-22T04:18:06.077Z,1001.63
2018-12-22T04:19:05.871Z,1001.69
2018-12-22T04:20:05.862Z,1001.65
2018-12-22T04:21:05.874Z,1001.73
2018-12-22T04:22:05.865Z,1001.67
2018-12-22T04:23:06.055Z,1001.65
2018-12-22T04:24:05.844Z,1001.66
2018-12-22T04:25:05.842Z,1001.68
2018-12-22T04:26:05.841Z,1001.61
2018-12-22T04:27:06.034Z,1001.72
2018-12-22T04:28:05.821Z,1001.57
2018-12-22T04:29:05.822Z,1001.67
2018-12-22T04:30:05.814Z,1001.81
2018-12-22T04:31:05.823Z,1001.75
2018-12-22T04:32:05.806Z,1001.78
2018-12-22T04:33:05.800Z,1001.68
2018-12-22T04:34:05.792Z,1001.70
2018-12-22T04:35:05.997Z,1001.63
2018-12-22T04:36:05.800Z,1001.63
2018-12-22T04:37:05.793Z,1001.64
2018-12-22T04:38:05.784Z,1001.78
2018-12-22T04:39:05.774Z,1001.78
2018-12-22T04:40:05.773Z,1001.81
2018-12-22T04:41:05.847Z,1001.81
2018-12-22T04:42:05.986Z,1001.86
2018-12-22T04:43:05.760Z,1001.86
2018-12-22T04:44:05.960Z,1001.75
2018-12-22T04:45:05.768Z,1001.83
2018-12-22T04:46:05.977Z,1001.85
2018-12-22T04:47:05.736Z,1001.86
2018-12-22T04:48:05.736Z,1001.91
2018-12-22T04:49:05.724Z,1001.92
2018-12-22T04:50:05.718Z,1001.97
2018-12-22T04:51:05.716Z,1001.99
2018-12-22T04:52:05.708Z,1002.04
2018-12-22T04:53:05.713Z,1002.03
2018-12-22T04:54:05.714Z,1002.03
2018-12-22T04:55:05.700Z,1002.04
2018-12-22T04:56:05.701Z,1002.04
2018-12-22T04:57:05.687Z,1001.97
2018-12-22T04:58:05.682Z,1002.01
2018-12-22T04:59:05.674Z,1002.04
2018-12-22T05:00:05.688Z,1002.07
2018-12-22T05:01:05.694Z,1001.99
2018-12-22T05:02:05.678Z,1002.02
2018-12-22T05:03:05.877Z,1001.89
2018-12-22T05:04:05.658Z,1002.02
2018-12-22T05:05:05.657Z,1001.95
2018-12-22T05:06:05.647Z,1002.01
2018-12-22T05:07:05.655Z,1002.00
2018-12-22T05:08:05.641Z,1001.99
2018-12-22T05:09:05.668Z,1001.99
2018-12-22T05:10:05.625Z,1002.00
2018-12-22T05:11:05.618Z,1001.99
2018-12-22T05:12:05.616Z,1002.03
2018-12-22T05:13:05.614Z,1001.99
2018-12-22T05:14:05.632Z,1001.96
2018-12-22T05:15:05.620Z,1002.02
2018-12-22T05:16:05.816Z,1002.09
2018-12-22T05:17:05.613Z,1002.07
2018-12-22T05:18:05.591Z,1002.03
2018-12-22T05:19:05.580Z,1002.03
2018-12-22T05:20:05.596Z,1002.10
2018-12-22T05:21:05.589Z,1002.10
2018-12-22T05:22:05.773Z,1002.14
2018-12-22T05:23:05.567Z,1002.10
2018-12-22T05:24:05.786Z,1002.07
2018-12-22T05:25:05.553Z,1002.08
2018-12-22T05:26:05.754Z,1002.13
2018-12-22T05:27:05.550Z,1002.17
2018-12-22T05:28:05.540Z,1002.09
2018-12-22T05:29:05.736Z,1002.18
2018-12-22T05:30:05.733Z,1002.25
2018-12-22T05:31:05.728Z,1002.23
2018-12-22T05:32:05.555Z,1002.15
2018-12-22T05:33:05.512Z,1002.23
2018-12-22T05:34:05.534Z,1002.33
2018-12-22T05:35:05.518Z,1002.38
2018-12-22T05:36:05.703Z,1002.46
2018-12-22T05:37:05.492Z,1002.40
2018-12-22T05:38:05.704Z,1002.42
2018-12-22T05:39:05.496Z,1002.47
2018-12-22T05:40:05.696Z,1002.46
2018-12-22T05:41:05.688Z,1002.49
2018-12-22T05:42:05.484Z,1002.52
2018-12-22T05:43:05.466Z,1002.50
2018-12-22T05:44:05.483Z,1002.54
2018-12-22T05:45:05.455Z,1002.46
2018-12-22T05:46:05.462Z,1002.55
2018-12-22T05:47:05.442Z,1002.54
2018-12-22T05:48:05.453Z,1002.51
2018-12-22T05:49:05.444Z,1002.55
2018-12-22T05:50:05.435Z,1002.63
2018-12-22T05:51:05.441Z,1002.59
2018-12-22T05:52:05.426Z,1002.62
2018-12-22T05:53:05.630Z,1002.62
2018-12-22T05:54:05.414Z,1002.63
2018-12-22T05:55:05.414Z,1002.65
2018-12-22T05:56:05.621Z,1002.70
2018-12-22T05:57:05.397Z,1002.68
2018-12-22T05:58:05.389Z,1002.73
2018-12-22T05:59:05.408Z,1002.77
2018-12-22T06:00:05.390Z,1002.79
2018-12-22T06:01:05.383Z,1002.72
2018-12-22T06:02:05.378Z,1002.78
2018-12-22T06:03:05.364Z,1002.82
2018-12-22T06:04:05.368Z,1002.91
2018-12-22T06:05:05.372Z,1002.88
2018-12-22T06:06:05.365Z,1002.96
2018-12-22T06:07:05.357Z,1003.00
2018-12-22T06:08:05.350Z,1002.89
2018-12-22T06:09:05.341Z,1002.89
2018-12-22T06:10:05.342Z,1002.87
2018-12-22T06:11:05.338Z,1002.95
2018-12-22T06:12:05.339Z,1003.00
2018-12-22T06:13:05.526Z,1002.94
2018-12-22T06:14:05.317Z,1003.05
2018-12-22T06:15:05.306Z,1003.03
2018-12-22T06:16:05.306Z,1003.12
2018-12-22T06:17:05.298Z,1003.19
2018-12-22T06:18:05.493Z,1003.37
2018-12-22T06:19:05.292Z,1003.17
2018-12-22T06:20:05.285Z,1003.30
2018-12-22T06:21:05.272Z,1003.22
2018-12-22T06:22:05.271Z,1003.21
2018-12-22T06:23:05.294Z,1003.19
2018-12-22T06:24:05.258Z,1003.23
2018-12-22T06:25:05.260Z,1003.28
2018-12-22T06:26:05.248Z,1003.23
2018-12-22T06:27:05.453Z,1003.26
2018-12-22T06:28:05.254Z,1003.26
2018-12-22T06:29:05.235Z,1003.18
2018-12-22T06:30:09.144Z,1003.21
2018-12-22T06:31:05.236Z,1003.20
2018-12-22T06:32:05.436Z,1003.26
2018-12-22T06:33:05.235Z,1003.34
2018-12-22T06:34:05.216Z,1003.27
2018-12-22T06:35:05.208Z,1003.30
2018-12-22T06:36:05.210Z,1003.24
2018-12-22T06:37:05.196Z,1003.32
2018-12-22T06:38:05.394Z,1003.36
2018-12-22T06:39:05.181Z,1003.43
2018-12-22T06:40:05.189Z,1003.41
2018-12-22T06:41:05.394Z,1003.52
2018-12-22T06:42:05.376Z,1003.51
2018-12-22T06:43:05.171Z,1003.57
2018-12-22T06:44:05.170Z,1003.63
2018-12-22T06:45:05.367Z,1003.76
2018-12-22T06:46:05.147Z,1003.73
2018-12-22T06:47:05.150Z,1003.79
2018-12-22T06:48:05.159Z,1003.77
2018-12-22T06:49:05.355Z,1003.78
2018-12-22T06:50:05.341Z,1003.79
2018-12-22T06:51:05.123Z,1003.87
2018-12-22T06:52:05.115Z,1003.88
2018-12-22T06:53:05.329Z,1003.83
2018-12-22T06:54:05.107Z,1003.88
2018-12-22T06:55:05.102Z,1003.90
2018-12-22T06:56:05.094Z,1003.88
2018-12-22T06:57:05.094Z,1003.99
2018-12-22T06:58:05.172Z,1003.97
2018-12-22T06:59:05.079Z,1003.97
2018-12-22T07:00:05.074Z,1004.08
2018-12-22T07:01:05.064Z,1004.02
2018-12-22T07:02:05.069Z,1004.01
2018-12-22T07:03:05.069Z,1003.95
2018-12-22T07:04:05.043Z,1004.01
2018-12-22T07:05:05.052Z,1004.01
2018-12-22T07:06:05.040Z,1004.05
2018-12-22T07:07:05.232Z,1004.06
2018-12-22T07:08:05.027Z,1004.08
2018-12-22T07:09:05.030Z,1004.10
2018-12-22T07:10:05.026Z,1004.13
2018-12-22T07:11:05.123Z,1004.08
2018-12-22T07:12:05.017Z,1004.19
2018-12-22T07:13:05.022Z,1004.23
2018-12-22T07:14:05.000Z,1004.22
2018-12-22T07:15:04.991Z,1004.28
2018-12-22T07:16:04.998Z,1004.31
2018-12-22T07:17:04.976Z,1004.28
2018-12-22T07:18:04.975Z,1004.25
2018-12-22T07:19:04.974Z,1004.35
2018-12-22T07:20:04.965Z,1004.33
2018-12-22T07:21:04.956Z,1004.41
2018-12-22T07:22:04.959Z,1004.45
2018-12-22T07:23:05.167Z,1004.53
2018-12-22T07:24:04.951Z,1004.49
2018-12-22T07:25:04.950Z,1004.50
2018-12-22T07:26:04.926Z,1004.49
2018-12-22T07:27:05.139Z,1004.53
2018-12-22T07:28:04.927Z,1004.58
2018-12-22T07:29:04.927Z,1004.63
2018-12-22T07:30:04.912Z,1004.63
2018-12-22T07:31:05.109Z,1004.69
2018-12-22T07:32:04.894Z,1004.63
2018-12-22T07:33:04.901Z,1004.71
2018-12-22T07:34:04.888Z,1004.75
2018-12-22T07:35:04.884Z,1004.76
2018-12-22T07:36:04.888Z,1004.74
2018-12-22T07:37:04.896Z,1004.72
2018-12-22T07:38:05.082Z,1004.85
2018-12-22T07:39:04.855Z,1004.82
2018-12-22T07:40:04.856Z,1004.86
2018-12-22T07:41:04.851Z,1004.83
2018-12-22T07:42:04.851Z,1005.00
2018-12-22T07:43:05.046Z,1004.98
2018-12-22T07:44:04.832Z,1005.03
2018-12-22T07:45:04.829Z,1005.03
2018-12-22T07:46:04.815Z,1005.07
2018-12-22T07:47:04.817Z,1005.11
2018-12-22T07:48:04.818Z,1005.20
2018-12-22T07:49:04.806Z,1005.18
2018-12-22T07:50:04.800Z,1005.11
2018-12-22T07:51:04.805Z,1005.17
2018-12-22T07:52:04.992Z,1005.16
2018-12-22T07:53:04.780Z,1005.18
2018-12-22T07:54:04.788Z,1005.21
2018-12-22T07:55:04.788Z,1005.25
2018-12-22T07:56:04.986Z,1005.24
2018-12-22T07:57:04.776Z,1005.25
2018-12-22T07:58:04.757Z,1005.29
2018-12-22T07:59:04.745Z,1005.35
2018-12-22T08:00:04.745Z,1005.34
2018-12-22T08:01:04.953Z,1005.44
2018-12-22T08:02:04.736Z,1005.42
2018-12-22T08:03:04.732Z,1005.43
2018-12-22T08:04:04.728Z,1005.46
2018-12-22T08:05:04.722Z,1005.62
2018-12-22T08:06:04.739Z,1005.56
2018-12-22T08:07:04.719Z,1005.72
2018-12-22T08:08:04.917Z,1005.71
2018-12-22T08:09:04.710Z,1005.75
2018-12-22T08:10:04.700Z,1005.78
2018-12-22T08:11:04.685Z,1005.77
2018-12-22T08:12:04.688Z,1005.78
2018-12-22T08:13:04.684Z,1005.83
2018-12-22T08:14:04.672Z,1005.91
2018-12-22T08:15:04.669Z,1005.82
2018-12-22T08:16:04.672Z,1005.82
2018-12-22T08:17:04.671Z,1005.91
2018-12-22T08:18:04.659Z,1005.96
2018-12-22T08:19:04.855Z,1005.97
2018-12-22T08:20:04.651Z,1006.01
2018-12-22T08:21:04.633Z,1006.04
2018-12-22T08:22:04.833Z,1006.17
2018-12-22T08:23:04.624Z,1006.13
2018-12-22T08:24:04.625Z,1006.08
2018-12-22T08:25:04.610Z,1006.18
2018-12-22T08:26:04.815Z,1006.22
2018-12-22T08:27:04.650Z,1006.09
2018-12-22T08:28:04.611Z,1006.23
2018-12-22T08:29:04.589Z,1006.25
2018-12-22T08:30:04.589Z,1006.25
2018-12-22T08:31:04.578Z,1006.28
2018-12-22T08:32:04.578Z,1006.33
2018-12-22T08:33:04.574Z,1006.34
2018-12-22T08:34:04.767Z,1006.40
2018-12-22T08:35:04.766Z,1006.42
2018-12-22T08:36:04.557Z,1006.44
2018-12-22T08:37:04.543Z,1006.42
2018-12-22T08:38:04.753Z,1006.57
2018-12-22T08:39:04.535Z,1006.52
2018-12-22T08:40:04.732Z,1006.51
2018-12-22T08:41:04.531Z,1006.59
2018-12-22T08:42:04.532Z,1006.66
2018-12-22T08:43:04.559Z,1006.67
2018-12-22T08:44:04.523Z,1006.69
2018-12-22T08:45:04.519Z,1006.68
2018-12-22T08:46:04.516Z,1006.72
2018-12-22T08:47:04.495Z,1006.82
2018-12-22T08:48:04.494Z,1006.83
2018-12-22T08:49:04.479Z,1006.81
2018-12-22T08:50:09.084Z,1006.88
2018-12-22T08:51:04.479Z,1006.86
2018-12-22T08:52:04.466Z,1006.94
2018-12-22T08:53:04.478Z,1006.93
2018-12-22T08:54:04.666Z,1006.97
2018-12-22T08:55:04.457Z,1006.95
2018-12-22T08:56:04.654Z,1006.99
2018-12-22T08:57:04.447Z,1007.08
2018-12-22T08:58:04.434Z,1007.07
2018-12-22T08:59:04.432Z,1007.11
2018-12-22T09:00:04.425Z,1007.07
2018-12-22T09:01:04.623Z,1007.15
2018-12-22T09:02:04.417Z,1007.22
2018-12-22T09:03:04.418Z,1007.26
2018-12-22T09:04:04.409Z,1007.27
2018-12-22T09:05:04.405Z,1007.33
2018-12-22T09:06:04.393Z,1007.31
2018-12-22T09:07:04.407Z,1007.39
2018-12-22T09:08:04.389Z,1007.42
2018-12-22T09:09:04.392Z,1007.41
2018-12-22T09:10:04.380Z,1007.40
2018-12-22T09:11:04.385Z,1007.46
2018-12-22T09:12:04.370Z,1007.46
2018-12-22T09:13:04.366Z,1007.51
2018-12-22T09:14:04.357Z,1007.55
2018-12-22T09:15:04.369Z,1007.55
2018-12-22T09:16:04.359Z,1007.55
2018-12-22T09:17:04.545Z,1007.57
2018-12-22T09:18:04.344Z,1007.55
2018-12-22T09:19:04.350Z,1007.59
2018-12-22T09:20:04.331Z,1007.56
2018-12-22T09:21:04.516Z,1007.61
2018-12-22T09:22:04.318Z,1007.64
2018-12-22T09:23:04.311Z,1007.60
2018-12-22T09:24:04.314Z,1007.65
2018-12-22T09:25:04.303Z,1007.66
2018-12-22T09:26:04.293Z,1007.68
2018-12-22T09:27:04.301Z,1007.73
2018-12-22T09:28:04.295Z,1007.78
2018-12-22T09:29:04.280Z,1007.72
2018-12-22T09:30:04.485Z,1007.81
2018-12-22T09:31:04.484Z,1007.81
2018-12-22T09:32:04.270Z,1007.76
2018-12-22T09:33:04.458Z,1007.81
2018-12-22T09:34:13.065Z,1007.80
2018-12-22T09:35:04.278Z,1007.82
2018-12-22T09:36:04.266Z,1007.86
2018-12-22T09:37:04.242Z,1007.85
2018-12-22T09:38:04.232Z,1007.94
2018-12-22T09:39:04.246Z,1007.91
2018-12-22T09:40:04.453Z,1007.92
2018-12-22T09:41:04.233Z,1007.90
2018-12-22T09:42:04.219Z,1007.97
2018-12-22T09:43:04.205Z,1007.94
2018-12-22T09:44:04.210Z,1007.94
2018-12-22T09:45:04.195Z,1007.97
2018-12-22T09:46:04.188Z,1008.01
2018-12-22T09:47:04.189Z,1007.95
2018-12-22T09:48:04.179Z,1008.03
2018-12-22T09:49:04.170Z,1008.04
2018-12-22T09:50:04.184Z,1008.16
2018-12-22T09:51:04.162Z,1008.02
2018-12-22T09:52:04.172Z,1008.02
2018-12-22T09:53:04.179Z,1008.07
2018-12-22T09:54:04.171Z,1008.12
2018-12-22T09:55:04.219Z,1008.12
2018-12-22T09:56:04.147Z,1008.11
2018-12-22T09:57:04.159Z,1008.11
2018-12-22T09:58:04.143Z,1008.10
2018-12-22T09:59:06.366Z,1008.09
2018-12-22T10:00:04.123Z,1008.11
2018-12-22T10:01:09.285Z,1008.10
2018-12-22T10:02:04.112Z,1008.13
2018-12-22T10:03:04.111Z,1008.10
2018-12-22T10:04:04.147Z,1008.14
2018-12-22T10:05:04.124Z,1008.18
2018-12-22T10:06:04.211Z,1008.18
2018-12-22T10:07:04.092Z,1008.18
2018-12-22T10:08:04.084Z,1008.21
2018-12-22T10:09:04.106Z,1008.19
2018-12-22T10:10:04.077Z,1008.25
2018-12-22T10:11:04.071Z,1008.19
2018-12-22T10:12:04.064Z,1008.26
2018-12-22T10:13:04.069Z,1008.24
2018-12-22T10:14:04.084Z,1008.19
2018-12-22T10:15:04.063Z,1008.22
2018-12-22T10:16:04.063Z,1008.23
2018-12-22T10:17:05.015Z,1008.21
2018-12-22T10:18:04.054Z,1008.20
2018-12-22T10:19:04.055Z,1008.17
2018-12-22T10:20:04.028Z,1008.24
2018-12-22T10:21:04.022Z,1008.25
2018-12-22T10:22:04.103Z,1008.25
2018-12-22T10:23:04.013Z,1008.20
2018-12-22T10:24:04.010Z,1008.20
2018-12-22T10:25:04.027Z,1008.18
2018-12-22T10:26:04.011Z,1008.19
2018-12-22T10:27:03.998Z,1008.20
2018-12-22T10:28:03.990Z,1008.20
2018-12-22T10:29:03.986Z,1008.26
2018-12-22T10:30:03.988Z,1008.35
2018-12-22T10:31:04.000Z,1008.36
2018-12-22T10:32:03.979Z,1008.36
2018-12-22T10:33:03.983Z,1008.33
2018-12-22T10:34:03.971Z,1008.33
2018-12-22T10:35:03.958Z,1008.34
2018-12-22T10:36:03.950Z,1008.39
2018-12-22T10:37:03.943Z,1008.42
2018-12-22T10:38:03.952Z,1008.42
2018-12-22T10:39:03.934Z,1008.44
2018-12-22T10:40:03.950Z,1008.39
2018-12-22T10:41:03.930Z,1008.37
2018-12-22T10:42:03.940Z,1008.40
2018-12-22T10:43:03.934Z,1008.34
2018-12-22T10:44:03.930Z,1008.39
2018-12-22T10:45:03.926Z,1008.32
2018-12-22T10:46:03.912Z,1008.38
2018-12-22T10:47:03.932Z,1008.32
2018-12-22T10:48:03.908Z,1008.34
2018-12-22T10:49:03.894Z,1008.35
2018-12-22T10:50:03.902Z,1008.32
2018-12-22T10:51:03.915Z,1008.36
2018-12-22T10:52:03.879Z,1008.40
2018-12-22T10:53:03.878Z,1008.38
2018-12-22T10:54:03.866Z,1008.41
2018-12-22T10:55:03.866Z,1008.39
2018-12-22T10:56:03.876Z,1008.36
2018-12-22T10:57:04.206Z,1008.45
2018-12-22T10:58:03.852Z,1008.46
2018-12-22T10:59:03.845Z,1008.47
2018-12-22T11:00:03.846Z,1008.44
2018-12-22T11:01:03.840Z,1008.45
2018-12-22T11:02:03.826Z,1008.47
2018-12-22T11:03:03.837Z,1008.50
2018-12-22T11:04:03.825Z,1008.39
2018-12-22T11:05:04.038Z,1008.48
2018-12-22T11:06:03.816Z,1008.51
2018-12-22T11:07:03.804Z,1008.55
2018-12-22T11:08:03.805Z,1008.56
2018-12-22T11:09:03.797Z,1008.60
2018-12-22T11:10:03.795Z,1008.62
2018-12-22T11:11:03.805Z,1008.62
2018-12-22T11:12:03.786Z,1008.62
2018-12-22T11:13:03.781Z,1008.61
2018-12-22T11:14:03.778Z,1008.64
2018-12-22T11:15:03.773Z,1008.64
2018-12-22T11:16:03.768Z,1008.62
2018-12-22T11:17:03.767Z,1008.69
2018-12-22T11:18:03.762Z,1008.67
2018-12-22T11:19:03.951Z,1008.69
2018-12-22T11:20:03.758Z,1008.66
2018-12-22T11:21:03.951Z,1008.73
2018-12-22T11:22:03.761Z,1008.77
2018-12-22T11:23:03.752Z,1008.67
2018-12-22T11:24:04.140Z,1008.69
2018-12-22T11:25:03.748Z,1008.66
2018-12-22T11:26:03.723Z,1008.71
2018-12-22T11:27:03.723Z,1008.74
2018-12-22T11:28:03.714Z,1008.67
2018-12-22T11:29:03.716Z,1008.72
2018-12-22T11:30:03.705Z,1008.68
2018-12-22T11:31:03.697Z,1008.72
2018-12-22T11:32:03.699Z,1008.75
2018-12-22T11:33:03.698Z,1008.78
2018-12-22T11:34:03.685Z,1008.79
2018-12-22T11:35:03.683Z,1008.80
2018-12-22T11:36:03.672Z,1008.85
2018-12-22T11:37:03.671Z,1008.88
2018-12-22T11:38:03.668Z,1008.93
2018-12-22T11:39:03.663Z,1008.93
2018-12-22T11:40:03.657Z,1008.89
2018-12-22T11:41:03.650Z,1008.89
2018-12-22T11:42:03.848Z,1008.96
2018-12-22T11:43:03.848Z,1008.94
2018-12-22T11:44:03.648Z,1008.97
2018-12-22T11:45:03.642Z,1008.97
2018-12-22T11:46:03.625Z,1009.00
2018-12-22T11:47:03.826Z,1009.03
2018-12-22T11:48:03.618Z,1008.98
2018-12-22T11:49:03.617Z,1009.00
2018-12-22T11:50:03.813Z,1009.06
2018-12-22T11:51:03.623Z,1009.07
2018-12-22T11:52:03.610Z,1009.03
2018-12-22T11:53:03.799Z,1009.05
2018-12-22T11:54:03.609Z,1008.98
2018-12-22T11:55:03.590Z,1009.08
2018-12-22T11:56:03.591Z,1009.07
2018-12-22T11:57:03.574Z,1009.05
2018-12-22T11:58:03.570Z,1009.04
2018-12-22T11:59:03.568Z,1009.00
2018-12-22T12:00:03.564Z,1009.07
2018-12-22T12:01:03.572Z,1009.08
2018-12-22T12:02:09.540Z,1009.03
2018-12-22T12:03:03.553Z,1009.05
2018-12-22T12:04:03.578Z,1009.04
2018-12-22T12:05:03.756Z,1009.01